Musoma Airport

Airport
ICAO code: 
HTMU
IATA Code: 
MUZ
Summary
ICAO Region: 
AFI
Territory: 
Location: 
Musoma, Mara Region
Serving: 
Musoma
Elevation: 
3783 ft
Coordinates: 
Aerial View: 
1° 30' 10.008" S, 33° 48' 7.992" E
Metar
Observation
HTMU 162200Z 00000KT 9999 FEW016 FEW018CB BKN080 21/19 Q1018
Station
Musoma
Date/Time
2022-01-16 22:00:00
Wind direction
Wind speed
00 kts
Lowest cloud amount
few clouds
Temperature
21°C
Dew point
19°C
Humidity
88%
QNH
1018 hPa
Weather condition
n/a

Musoma Airport is an airport in northern Tanzania serving Musoma and the surrounding Mara Region.

Climatology

Tropical Savanna climate (Köppen climate classification Aw)

Airport map: 
Aerial View: 

SKYbrary Partners:

Safety knowledge contributed by: